Time;durP1;ratioP1;P1;durP2;ratioP2;P2;SDS_P1;SDS_P2;PMS_P1;PMS_P2;Temp;Humidity;BMP_temperature;BMP_pressure;BME280_temperature;BME280_humidity;BME280_pressure;Samples;Min_cycle;Max_cycle;Signal;HPM_P1;HPM_P2
2023/02/25 00:02:22;;;;;;;5.90;4.07;;;;;;;4.81;100.00;152599.03;5050921;28;20434;-83
2023/02/25 00:04:49;;;;;;;7.00;4.90;;;;;;;4.82;100.00;152600.28;5066014;28;20455;-83
2023/02/25 00:07:15;;;;;;;7.77;5.13;;;;;;;4.84;100.00;152606.72;5052665;28;20482;-83
2023/02/25 00:09:42;;;;;;;4.87;4.37;;;;;;;4.78;100.00;152591.28;5053573;28;20453;-83
2023/02/25 00:12:09;;;;;;;6.73;4.60;;;;;;;4.78;100.00;152591.28;5033355;28;20460;-83
2023/02/25 00:14:35;;;;;;;7.27;4.53;;;;;;;4.78;100.00;152590.00;5068518;28;21016;-83
2023/02/25 00:17:02;;;;;;;7.47;5.37;;;;;;;4.73;100.00;152578.41;5057961;28;20440;-83
2023/02/25 00:19:30;;;;;;;7.03;4.80;;;;;;;4.74;100.00;152579.66;5033622;28;20440;-83
2023/02/25 00:21:57;;;;;;;6.60;5.10;;;;;;;4.69;100.00;152568.06;5038134;28;20814;-83
2023/02/25 00:24:23;;;;;;;6.60;5.10;;;;;;;4.68;100.00;152564.22;5051668;28;20547;-83
2023/02/25 00:26:50;;;;;;;7.40;5.60;;;;;;;4.69;100.00;152568.06;5061701;28;20444;-83
2023/02/25 00:29:17;;;;;;;7.30;5.20;;;;;;;4.69;100.00;152568.06;5048331;28;20456;-83
2023/02/25 00:31:45;;;;;;;8.37;5.80;;;;;;;4.71;100.00;152573.22;5032384;28;20491;-84
2023/02/25 00:34:11;;;;;;;7.50;5.40;;;;;;;4.74;100.00;152580.97;5051736;28;20606;-83
2023/02/25 00:36:39;;;;;;;8.93;5.60;;;;;;;4.70;100.00;152570.66;5064349;28;20440;-83
2023/02/25 00:39:07;;;;;;;7.40;5.50;;;;;;;4.67;100.00;152562.94;5050625;28;20436;-83
2023/02/25 00:41:35;;;;;;;6.97;4.77;;;;;;;4.69;100.00;152566.78;5051240;28;20439;-83
2023/02/25 00:44:03;;;;;;;9.40;5.40;;;;;;;4.69;100.00;152568.06;5047814;28;20546;-83
2023/02/25 00:46:30;;;;;;;9.10;5.60;;;;;;;4.71;100.00;152573.22;5032673;28;20437;-83
2023/02/25 00:48:57;;;;;;;6.73;5.27;;;;;;;4.76;100.00;152584.84;5052005;28;20547;-83
2023/02/25 00:51:26;;;;;;;8.27;5.80;;;;;;;4.71;100.00;152573.22;5044082;28;21002;-83
2023/02/25 00:53:55;;;;;;;8.60;5.50;;;;;;;4.69;100.00;152566.78;5049999;28;20477;-84
2023/02/25 00:56:24;;;;;;;6.73;5.10;;;;;;;4.71;100.00;152573.22;5068390;28;20446;-83
2023/02/25 00:58:51;;;;;;;10.63;6.70;;;;;;;4.65;100.00;152557.78;5066225;28;20557;-83
2023/02/25 01:01:20;;;;;;;6.17;5.17;;;;;;;4.63;100.00;152552.59;5047212;28;20468;-83
2023/02/25 01:03:47;;;;;;;6.90;5.03;;;;;;;4.63;100.00;152552.59;5049659;28;20443;-83
2023/02/25 01:06:15;;;;;;;7.87;5.57;;;;;;;4.62;100.00;152548.75;5046526;28;20542;-83
2023/02/25 01:08:41;;;;;;;11.10;6.77;;;;;;;4.57;100.00;152537.19;5044536;28;20483;-83
2023/02/25 01:11:16;;;;;;;6.70;5.10;;;;;;;4.58;100.00;152538.47;5060559;28;20851;-83
2023/02/25 01:13:43;;;;;;;8.73;6.07;;;;;;;4.57;100.00;152537.19;5043395;28;20481;-83
2023/02/25 01:16:14;;;;;;;6.83;5.00;;;;;;;4.54;100.00;152529.44;5049315;28;20509;-83
2023/02/25 01:18:41;;;;;;;6.37;5.00;;;;;;;4.62;100.00;152550.06;5042854;28;20825;-83
2023/02/25 01:21:16;;;;;;;6.83;4.20;;;;;;;4.58;100.00;152539.72;5040756;28;20923;-83
2023/02/25 01:23:43;;;;;;;5.97;4.70;;;;;;;4.53;100.00;152525.53;5032461;28;20486;-83
2023/02/25 01:26:10;;;;;;;6.07;4.57;;;;;;;4.42;100.00;152498.50;5026250;28;20456;-83
2023/02/25 01:28:38;;;;;;;10.70;5.73;;;;;;;4.47;100.00;152511.41;5043894;28;20475;-82
2023/02/25 01:31:07;;;;;;;5.27;4.77;;;;;;;4.42;100.00;152498.50;5029410;28;20456;-82
2023/02/25 01:33:37;;;;;;;7.00;4.23;;;;;;;4.41;100.00;152495.94;5058476;28;20742;-83
2023/02/25 01:36:05;;;;;;;8.43;4.50;;;;;;;4.37;100.00;152485.63;5054934;28;20796;-82
2023/02/25 01:38:32;;;;;;;6.30;3.90;;;;;;;4.41;100.00;152495.94;5037314;28;20447;-82
2023/02/25 01:40:59;;;;;;;7.83;4.30;;;;;;;4.45;100.00;152504.97;5057991;28;20451;-82
2023/02/25 01:43:27;;;;;;;6.27;4.53;;;;;;;4.48;100.00;152513.97;5048522;28;20962;-82
2023/02/25 01:45:55;;;;;;;6.50;4.97;;;;;;;4.45;100.00;152506.22;5051644;28;20450;-83
2023/02/25 01:48:24;;;;;;;6.30;4.43;;;;;;;4.43;100.00;152501.09;5047534;28;20528;-83
2023/02/25 01:50:52;;;;;;;8.87;4.13;;;;;;;4.45;100.00;152504.97;5048422;28;20479;-82
2023/02/25 01:53:22;;;;;;;5.70;4.10;;;;;;;4.38;100.00;152486.91;5054523;28;20502;-82
2023/02/25 01:55:49;;;;;;;5.03;3.83;;;;;;;4.31;100.00;152470.19;5021514;28;20428;-82
2023/02/25 01:58:15;;;;;;;5.70;4.17;;;;;;;4.30;100.00;152467.59;5052979;28;20435;-82
2023/02/25 02:00:43;;;;;;;4.03;3.40;;;;;;;4.30;100.00;152468.91;5032693;28;20489;-82
2023/02/25 02:03:15;;;;;;;6.40;3.67;;;;;;;4.25;100.00;152454.72;5052527;28;20449;-82
2023/02/25 02:05:56;;;;;;;5.30;3.30;;;;;;;4.27;100.00;152459.88;5037374;28;20459;-82
2023/02/25 02:08:24;;;;;;;5.33;3.80;;;;;;;4.20;100.00;152441.84;5053574;28;20799;-82
2023/02/25 02:10:51;;;;;;;5.00;3.63;;;;;;;4.23;100.00;152449.59;5051886;28;20459;-82
2023/02/25 02:13:18;;;;;;;5.13;3.77;;;;;;;4.18;100.00;152436.72;5054711;28;20538;-82
2023/02/25 02:15:51;;;;;;;5.00;3.13;;;;;;;4.27;100.00;152459.88;5070068;28;20554;-82
2023/02/25 02:18:20;;;;;;;5.27;3.67;;;;;;;4.17;100.00;152435.41;5069749;28;20522;-82
2023/02/25 02:20:55;;;;;;;4.43;3.30;;;;;;;4.15;100.00;152430.28;5052805;28;20455;-82
2023/02/25 02:23:50;;;;;;;4.83;3.20;;;;;;;4.14;100.00;152426.38;5070219;28;20461;-82
2023/02/25 02:26:46;;;;;;;4.30;3.00;;;;;;;4.11;100.00;152418.66;5012573;28;20548;-82
2023/02/25 02:29:52;;;;;;;3.70;3.00;;;;;;;4.13;100.00;152423.84;5061674;28;20475;-82
2023/02/25 02:32:27;;;;;;;6.47;3.10;;;;;;;4.11;100.00;152419.94;5050420;28;20542;-82
2023/02/25 02:35:11;;;;;;;5.50;3.20;;;;;;;4.12;100.00;152421.25;5054302;28;20450;-82
2023/02/25 02:37:42;;;;;;;6.33;3.20;;;;;;;4.14;100.00;152426.38;5066962;28;20450;-82
2023/02/25 02:40:21;;;;;;;5.20;3.90;;;;;;;4.15;100.00;152430.28;5029345;28;20462;-82
2023/02/25 02:42:57;;;;;;;6.80;3.30;;;;;;;4.12;100.00;152421.25;5056569;28;20478;-82
2023/02/25 02:45:27;;;;;;;5.53;3.33;;;;;;;4.12;100.00;152422.53;5033974;28;20807;-82
2023/02/25 02:47:59;;;;;;;4.57;2.83;;;;;;;4.14;100.00;152427.69;5028627;28;20500;-82
2023/02/25 02:50:30;;;;;;;4.63;3.60;;;;;;;4.18;100.00;152436.72;5031481;28;20484;-82
2023/02/25 02:53:00;;;;;;;5.10;3.20;;;;;;;4.12;100.00;152422.53;5068087;28;20431;-83
2023/02/25 02:55:29;;;;;;;5.07;3.80;;;;;;;4.11;100.00;152418.66;5062077;28;20462;-83
2023/02/25 02:58:00;;;;;;;4.43;3.37;;;;;;;4.13;100.00;152425.09;5045631;28;20438;-83
2023/02/25 03:00:31;;;;;;;4.90;3.30;;;;;;;4.13;100.00;152423.84;5046617;28;20554;-82
2023/02/25 03:03:07;;;;;;;5.10;3.53;;;;;;;4.14;100.00;152426.38;5050439;28;20862;-82
2023/02/25 03:05:35;;;;;;;5.43;3.30;;;;;;;4.15;100.00;152430.28;5050639;28;20450;-82
2023/02/25 03:08:05;;;;;;;5.23;3.50;;;;;;;4.15;100.00;152428.97;5030817;28;20833;-83
2023/02/25 03:10:33;;;;;;;4.70;3.37;;;;;;;4.16;100.00;152431.53;5031647;28;20534;-83
2023/02/25 03:12:59;;;;;;;5.00;3.73;;;;;;;4.19;100.00;152439.25;5052758;28;20443;-82
2023/02/25 03:15:28;;;;;;;4.80;3.47;;;;;;;4.16;100.00;152431.53;5062481;28;20546;-83
2023/02/25 03:17:59;;;;;;;5.37;3.97;;;;;;;4.14;100.00;152426.38;5018474;28;21017;-82
2023/02/25 03:20:28;;;;;;;4.47;3.33;;;;;;;4.17;100.00;152434.13;5019839;28;20976;-83
2023/02/25 03:22:59;;;;;;;5.43;3.50;;;;;;;4.10;100.00;152417.34;5034349;28;20447;-83
2023/02/25 03:25:29;;;;;;;4.80;3.37;;;;;;;4.12;100.00;152421.25;5054922;28;20448;-83
2023/02/25 03:27:59;;;;;;;4.53;3.13;;;;;;;4.08;100.00;152410.91;5046749;28;20446;-83
2023/02/25 03:30:30;;;;;;;4.83;3.40;;;;;;;4.10;100.00;152416.09;5029773;28;20447;-83
2023/02/25 03:33:01;;;;;;;5.03;3.10;;;;;;;4.05;100.00;152404.47;5043160;28;20451;-83
2023/02/25 03:35:28;;;;;;;3.90;3.00;;;;;;;4.06;100.00;152405.78;5052403;28;20459;-82
2023/02/25 03:38:00;;;;;;;6.03;2.97;;;;;;;4.07;100.00;152408.38;5035323;28;20439;-83
2023/02/25 03:40:27;;;;;;;5.60;2.40;;;;;;;4.02;100.00;152395.50;5042950;28;20759;-83
2023/02/25 03:42:58;;;;;;;4.90;2.97;;;;;;;4.03;100.00;152398.03;5030866;28;20477;-82
2023/02/25 03:45:27;;;;;;;4.13;2.50;;;;;;;4.00;100.00;152390.31;5020034;28;20448;-82
2023/02/25 03:47:54;;;;;;;4.80;2.90;;;;;;;3.94;100.00;152374.88;5034591;28;20489;-82
2023/02/25 03:50:24;;;;;;;5.27;3.20;;;;;;;3.94;100.00;152374.88;5027093;28;20813;-83
2023/02/25 03:52:55;;;;;;;4.50;2.97;;;;;;;3.89;100.00;152363.25;5049023;28;20427;-83
2023/02/25 03:55:45;;;;;;;7.00;3.10;;;;;;;3.84;100.00;152350.41;5049878;28;20565;-83
2023/02/25 03:58:11;;;;;;;4.50;2.80;;;;;;;3.79;100.00;152336.22;5036453;28;20546;-83
2023/02/25 04:00:41;;;;;;;4.57;2.97;;;;;;;3.80;100.00;152338.81;5026130;28;21054;-83
2023/02/25 04:03:08;;;;;;;3.63;2.33;;;;;;;3.74;99.06;152324.66;5048892;28;20469;-83
2023/02/25 04:05:36;;;;;;;3.80;2.13;;;;;;;3.73;99.87;152320.81;5055826;28;20502;-82
2023/02/25 04:08:03;;;;;;;2.70;1.90;;;;;;;3.72;98.30;152319.50;5051016;28;20442;-83
2023/02/25 04:10:33;;;;;;;5.00;2.23;;;;;;;3.68;99.49;152310.50;5029467;28;20471;-83
2023/02/25 04:13:00;;;;;;;3.80;2.13;;;;;;;3.69;95.47;152313.09;5033357;28;20452;-82
2023/02/25 04:15:27;;;;;;;5.20;2.00;;;;;;;3.69;97.43;152313.09;5025831;28;20461;-83
2023/02/25 04:17:54;;;;;;;3.27;1.60;;;;;;;3.72;98.77;152318.22;5059671;28;20458;-83
2023/02/25 04:20:21;;;;;;;3.03;2.10;;;;;;;3.67;95.96;152307.94;5046615;28;20530;-82
2023/02/25 04:22:49;;;;;;;4.00;2.10;;;;;;;3.65;96.36;152301.50;5051802;28;21265;-83
2023/02/25 04:25:15;;;;;;;4.20;1.97;;;;;;;3.65;96.91;152301.50;5066249;28;20455;-83
2023/02/25 04:27:42;;;;;;;3.97;2.33;;;;;;;3.67;99.23;152306.66;5061772;28;20452;-82
2023/02/25 04:30:10;;;;;;;8.50;1.80;;;;;;;3.66;98.73;152305.34;5034935;28;20475;-83
2023/02/25 04:32:37;;;;;;;2.97;1.77;;;;;;;3.65;98.43;152302.75;5052518;28;20796;-83
2023/02/25 04:35:04;;;;;;;4.20;1.70;;;;;;;3.59;97.65;152286.03;5045793;28;20461;-83
2023/02/25 04:37:31;;;;;;;5.10;1.53;;;;;;;3.65;95.68;152301.50;5064730;28;20512;-82
2023/02/25 04:40:00;;;;;;;3.87;1.87;;;;;;;3.73;97.50;152320.81;5049788;28;20452;-82
2023/02/25 04:42:26;;;;;;;3.30;1.50;;;;;;;3.65;95.18;152302.75;5048388;28;20470;-82
2023/02/25 04:44:53;;;;;;;2.00;1.50;;;;;;;3.65;98.64;152301.50;5049831;28;20550;-83
2023/02/25 04:47:19;;;;;;;1.80;1.50;;;;;;;3.68;97.50;152310.50;5033715;28;20452;-82
2023/02/25 04:49:46;;;;;;;2.80;1.67;;;;;;;3.64;98.57;152300.22;5039676;28;20526;-83
2023/02/25 04:52:14;;;;;;;2.60;1.57;;;;;;;3.61;96.97;152292.47;5033081;28;20443;-82
2023/02/25 04:54:40;;;;;;;3.03;2.03;;;;;;;3.59;97.96;152287.34;5038180;28;20456;-82
2023/02/25 04:57:09;;;;;;;2.13;1.70;;;;;;;3.57;96.81;152282.16;5036348;28;21110;-82
2023/02/25 04:59:35;;;;;;;1.97;1.50;;;;;;;3.57;97.42;152280.91;5050619;28;20449;-82
2023/02/25 05:02:02;;;;;;;3.47;1.77;;;;;;;3.56;94.93;152278.31;5025860;28;20546;-82
2023/02/25 05:04:29;;;;;;;3.70;2.23;;;;;;;3.63;98.88;152297.63;5051838;28;20452;-82
2023/02/25 05:06:56;;;;;;;2.10;1.90;;;;;;;3.57;94.45;152280.91;5059184;28;20473;-82
2023/02/25 05:09:22;;;;;;;2.40;1.43;;;;;;;3.55;95.66;152277.03;5041605;28;20956;-83
2023/02/25 05:11:49;;;;;;;7.00;1.70;;;;;;;3.63;97.41;152297.63;5054501;28;20925;-83
2023/02/25 05:14:17;;;;;;;3.10;1.43;;;;;;;3.60;96.89;152289.88;5072275;28;20445;-82
2023/02/25 05:16:44;;;;;;;1.80;1.27;;;;;;;3.58;97.65;152284.75;5054968;28;20561;-83
2023/02/25 05:19:15;;;;;;;3.97;1.70;;;;;;;3.53;94.30;152271.88;5022549;28;20458;-83
2023/02/25 05:21:42;;;;;;;3.63;1.90;;;;;;;3.50;95.05;152264.16;5039156;28;20536;-83
2023/02/25 05:24:09;;;;;;;1.80;1.40;;;;;;;3.50;97.54;152262.84;5071930;28;21092;-83
2023/02/25 05:26:36;;;;;;;2.07;1.43;;;;;;;3.49;93.71;152261.59;5053233;28;20542;-83
2023/02/25 05:29:02;;;;;;;3.20;1.80;;;;;;;3.47;98.19;152256.44;5067534;28;20481;-83
2023/02/25 05:31:30;;;;;;;2.23;1.40;;;;;;;3.46;94.27;152253.88;5070094;28;20447;-83
2023/02/25 05:33:57;;;;;;;3.17;1.50;;;;;;;3.52;96.26;152269.28;5051430;28;20478;-83
2023/02/25 05:36:24;;;;;;;1.60;1.10;;;;;;;3.52;96.59;152269.28;5063188;28;20470;-83
2023/02/25 05:38:53;;;;;;;2.10;1.03;;;;;;;3.46;93.05;152252.59;5063010;28;20453;-83
2023/02/25 05:41:20;;;;;;;4.63;1.33;;;;;;;3.41;93.06;152241.00;5060706;28;20973;-83
2023/02/25 05:43:46;;;;;;;2.57;1.30;;;;;;;3.39;92.19;152235.81;5067595;28;20478;-83
2023/02/25 05:46:14;;;;;;;2.50;1.20;;;;;;;3.41;93.21;152239.72;5048533;28;20591;-82
2023/02/25 05:48:44;;;;;;;3.20;1.23;;;;;;;3.42;92.35;152243.56;5065015;28;20439;-83
2023/02/25 05:51:14;;;;;;;5.60;1.10;;;;;;;3.35;91.70;152225.56;5055443;28;20538;-83
2023/02/25 05:53:41;;;;;;;2.10;1.03;;;;;;;3.34;89.65;152222.97;5053688;28;20554;-83
2023/02/25 05:56:11;;;;;;;1.87;1.20;;;;;;;3.40;94.32;152238.41;5043852;28;20456;-83
2023/02/25 05:58:38;;;;;;;3.10;1.00;;;;;;;3.31;88.16;152215.22;5051622;28;20467;-82
2023/02/25 06:01:10;;;;;;;2.13;1.40;;;;;;;3.34;93.44;152222.97;5047598;28;21807;-83
2023/02/25 06:03:37;;;;;;;1.33;1.00;;;;;;;3.39;94.24;152234.59;5054873;28;20450;-83
2023/02/25 06:06:06;;;;;;;2.30;1.27;;;;;;;3.30;92.20;152212.69;5051962;28;20454;-83
2023/02/25 06:08:33;;;;;;;3.00;1.20;;;;;;;3.35;95.05;152224.25;5047717;28;20476;-83
2023/02/25 06:11:00;;;;;;;2.33;1.30;;;;;;;3.37;93.56;152230.69;5054414;28;20556;-83
2023/02/25 06:13:27;;;;;;;4.40;1.30;;;;;;;3.33;92.67;152220.41;5047669;28;20447;-83
2023/02/25 06:15:54;;;;;;;6.20;1.40;;;;;;;3.30;91.90;152212.69;5047307;28;20450;-83
2023/02/25 06:18:21;;;;;;;2.80;1.60;;;;;;;3.35;93.49;152225.56;5057795;28;20463;-83
2023/02/25 06:20:47;;;;;;;2.80;1.10;;;;;;;3.36;93.15;152226.84;5029846;28;20580;-83
2023/02/25 06:23:15;;;;;;;5.40;1.47;;;;;;;3.35;94.21;152225.56;5056942;28;20450;-83
2023/02/25 06:25:42;;;;;;;2.13;0.90;;;;;;;3.37;94.48;152229.41;5051662;28;20448;-83
2023/02/25 06:28:09;;;;;;;2.10;1.10;;;;;;;3.31;92.01;152215.22;5063993;28;20435;-83
2023/02/25 06:30:36;;;;;;;5.37;1.67;;;;;;;3.32;93.75;152217.81;5067773;28;20513;-83
2023/02/25 06:33:03;;;;;;;3.67;1.47;;;;;;;3.33;92.15;152220.41;5058833;28;20446;-83
2023/02/25 06:35:30;;;;;;;1.47;1.23;;;;;;;3.37;93.68;152229.41;5034531;28;20491;-83
2023/02/25 06:37:57;;;;;;;1.27;0.90;;;;;;;3.35;93.46;152225.56;5069355;28;20518;-83
2023/02/25 06:40:25;;;;;;;3.63;1.47;;;;;;;3.34;92.40;152222.97;5064214;28;20447;-83
2023/02/25 06:42:52;;;;;;;3.47;1.07;;;;;;;3.37;93.28;152230.69;5067529;28;20482;-83
2023/02/25 06:45:19;;;;;;;8.57;4.27;;;;;;;3.35;91.15;152225.56;5054509;28;20451;-83
2023/02/25 06:47:45;;;;;;;2.73;1.63;;;;;;;3.35;94.69;152224.25;5046554;28;20543;-83
2023/02/25 06:50:13;;;;;;;2.17;1.40;;;;;;;3.33;94.42;152220.41;5060648;28;21071;-83
2023/02/25 06:52:40;;;;;;;4.10;1.63;;;;;;;3.29;95.63;152210.09;5046789;28;20452;-83
2023/02/25 06:55:07;;;;;;;2.97;1.40;;;;;;;3.32;96.37;152216.53;5061260;28;20446;-83
2023/02/25 06:57:36;;;;;;;1.70;1.10;;;;;;;3.32;97.08;152216.53;5024343;28;20435;-83
2023/02/25 07:00:04;;;;;;;3.70;1.23;;;;;;;3.33;97.33;152219.13;5059716;28;20446;-83
2023/02/25 07:02:31;;;;;;;1.90;1.30;;;;;;;3.34;99.03;152221.66;5060963;28;20459;-83
2023/02/25 07:04:59;;;;;;;3.37;1.20;;;;;;;3.37;99.38;152230.69;5066125;28;20447;-83
2023/02/25 07:07:26;;;;;;;3.03;1.17;;;;;;;3.42;98.41;152242.25;5040599;28;20526;-83
2023/02/25 07:09:52;;;;;;;6.53;2.10;;;;;;;3.42;99.46;152243.56;5042776;28;20474;-83
2023/02/25 07:12:19;;;;;;;3.07;1.60;;;;;;;3.40;96.74;152237.13;5045589;28;20885;-83
2023/02/25 07:14:47;;;;;;;3.40;1.43;;;;;;;3.47;97.81;152256.44;5062837;28;20452;-83
2023/02/25 07:17:14;;;;;;;3.30;1.43;;;;;;;3.50;97.35;152264.16;5061672;28;20501;-83
2023/02/25 07:19:40;;;;;;;2.57;1.37;;;;;;;3.54;97.30;152273.19;5063204;28;20918;-83
2023/02/25 07:22:08;;;;;;;4.03;1.40;;;;;;;3.73;95.84;152322.13;5062350;28;20462;-83
2023/02/25 07:24:35;;;;;;;3.50;1.57;;;;;;;3.96;94.76;152380.03;5061431;28;20524;-83
2023/02/25 07:27:02;;;;;;;2.67;1.80;;;;;;;4.17;93.92;152434.13;5061076;28;20444;-83
2023/02/25 07:29:28;;;;;;;2.03;1.30;;;;;;;4.69;94.87;152568.06;5054070;28;20973;-82
2023/02/25 07:31:56;;;;;;;2.67;1.60;;;;;;;5.04;90.31;152655.69;5043373;28;20550;-83
2023/02/25 07:34:23;;;;;;;1.90;1.00;;;;;;;5.12;87.26;152676.31;5050511;28;20457;-83
2023/02/25 07:36:50;;;;;;;1.60;1.00;;;;;;;5.18;87.26;152691.81;5054946;28;20439;-83
2023/02/25 07:39:16;;;;;;;1.20;0.90;;;;;;;5.21;88.30;152699.56;5056393;28;20521;-83
2023/02/25 07:41:43;;;;;;;2.23;1.10;;;;;;;5.32;87.46;152727.91;5050041;28;20451;-83
2023/02/25 07:44:11;;;;;;;5.17;1.60;;;;;;;5.68;85.91;152820.75;5057779;28;20483;-83
2023/02/25 07:46:38;;;;;;;5.83;1.37;;;;;;;5.72;83.65;152831.03;5041041;28;20483;-83
2023/02/25 07:49:07;;;;;;;2.63;1.20;;;;;;;5.54;85.11;152784.63;5040319;28;20459;-83
2023/02/25 07:51:33;;;;;;;3.70;1.40;;;;;;;5.37;83.68;152742.09;5043514;28;20585;-83
2023/02/25 07:54:00;;;;;;;2.00;1.10;;;;;;;5.29;84.34;152720.19;5046283;28;20798;-83
2023/02/25 07:56:29;;;;;;;3.10;1.40;;;;;;;5.11;85.81;152673.78;5043719;28;20506;-83
2023/02/25 07:58:56;;;;;;;1.90;1.33;;;;;;;5.28;84.09;152717.59;5059454;28;20469;-83
2023/02/25 08:01:24;;;;;;;2.23;1.20;;;;;;;5.65;83.59;152813.00;5047655;28;20438;-83
2023/02/25 08:03:51;;;;;;;3.63;1.40;;;;;;;5.92;82.91;152882.69;5043039;28;20448;-83
2023/02/25 08:06:20;;;;;;;2.87;1.30;;;;;;;6.10;75.33;152927.84;5057928;28;20447;-83
2023/02/25 08:08:49;;;;;;;1.50;0.90;;;;;;;6.21;80.92;152956.22;5061180;28;20443;-89
2023/02/25 08:11:16;;;;;;;2.73;1.17;;;;;;;6.12;76.62;152932.97;5048629;28;20570;-83
2023/02/25 08:13:43;;;;;;;3.00;1.20;;;;;;;6.30;76.22;152978.16;5043950;28;20447;-83
2023/02/25 08:16:12;;;;;;;5.43;1.10;;;;;;;5.94;75.48;152887.84;5061562;28;20456;-83
2023/02/25 08:18:41;;;;;;;1.70;1.13;;;;;;;6.07;76.33;152921.38;5046026;28;20794;-83
2023/02/25 08:21:08;;;;;;;2.50;1.17;;;;;;;5.85;76.83;152864.63;5042093;28;20468;-83
2023/02/25 08:23:36;;;;;;;2.20;1.27;;;;;;;5.92;75.79;152882.69;5058419;28;20501;-83
2023/02/25 08:26:04;;;;;;;1.70;0.90;;;;;;;5.82;72.06;152856.88;5048493;28;20457;-83
2023/02/25 08:28:31;;;;;;;1.90;1.20;;;;;;;5.88;77.85;152871.06;5053144;28;20523;-83
2023/02/25 08:30:58;;;;;;;3.40;1.10;;;;;;;6.11;77.84;152930.44;5041315;28;20578;-83
2023/02/25 08:33:26;;;;;;;2.00;1.10;;;;;;;6.13;76.41;152936.88;5044313;28;20465;-83
2023/02/25 08:35:52;;;;;;;1.40;1.17;;;;;;;6.25;73.40;152966.53;5039765;28;20452;-83
2023/02/25 08:38:19;;;;;;;1.90;1.10;;;;;;;6.20;80.52;152952.31;5051100;28;20456;-83
2023/02/25 08:40:47;;;;;;;2.10;1.57;;;;;;;6.04;77.61;152913.63;5056133;28;20462;-83
2023/02/25 08:43:14;;;;;;;1.97;1.10;;;;;;;5.96;72.24;152891.69;5061537;28;20483;-83
2023/02/25 08:45:41;;;;;;;3.00;1.00;;;;;;;5.49;69.27;152773.03;5059605;28;20463;-83
2023/02/25 08:48:09;;;;;;;2.77;1.33;;;;;;;5.39;68.80;152747.25;5020979;28;21280;-83
2023/02/25 08:50:36;;;;;;;2.30;1.17;;;;;;;5.42;73.85;152753.69;5064328;28;20987;-83
2023/02/25 08:53:02;;;;;;;5.00;1.60;;;;;;;5.20;72.71;152698.25;5048471;28;20456;-83
2023/02/25 08:55:29;;;;;;;3.00;1.50;;;;;;;5.18;75.11;152691.81;5053710;28;20457;-83
2023/02/25 08:57:57;;;;;;;1.50;1.10;;;;;;;5.22;74.93;152703.41;5059242;28;20450;-83
2023/02/25 09:00:24;;;;;;;2.50;1.20;;;;;;;5.31;75.11;152726.63;5063843;28;20458;-83
2023/02/25 09:02:51;;;;;;;2.07;1.27;;;;;;;5.29;75.81;152720.19;5047827;28;20452;-83
2023/02/25 09:05:17;;;;;;;2.10;1.60;;;;;;;5.19;72.56;152694.41;5047067;28;20515;-83
2023/02/25 09:07:44;;;;;;;2.57;1.60;;;;;;;5.19;76.68;152694.41;5060911;28;20530;-83
2023/02/25 09:10:12;;;;;;;2.03;1.20;;;;;;;5.18;77.49;152691.81;5062135;28;20483;-84
2023/02/25 09:12:41;;;;;;;2.97;1.47;;;;;;;5.10;76.73;152672.47;5041004;28;20483;-83
2023/02/25 09:15:10;;;;;;;2.53;1.40;;;;;;;5.17;79.34;152689.22;5065175;28;20949;-83
2023/02/25 09:17:37;;;;;;;3.83;1.27;;;;;;;5.00;74.73;152646.72;5050320;28;20451;-83
2023/02/25 09:20:06;;;;;;;3.90;1.10;;;;;;;5.04;82.95;152655.69;5066679;28;20530;-83
2023/02/25 09:22:33;;;;;;;3.43;1.53;;;;;;;5.06;78.30;152660.84;5061353;28;20455;-83
2023/02/25 09:24:59;;;;;;;2.10;1.10;;;;;;;5.15;77.76;152684.06;5055692;28;20505;-77
2023/02/25 09:27:27;;;;;;;4.17;1.60;;;;;;;5.20;77.21;152696.94;5042583;28;20483;-83
2023/02/25 09:29:54;;;;;;;2.23;1.10;;;;;;;5.24;79.12;152707.28;5044356;28;20451;-83
2023/02/25 09:32:22;;;;;;;2.93;1.40;;;;;;;5.27;79.12;152716.28;5023976;28;20546;-77
2023/02/25 09:34:49;;;;;;;2.73;1.60;;;;;;;5.09;75.58;152668.59;5045529;28;20456;-76
2023/02/25 09:37:18;;;;;;;2.03;1.50;;;;;;;5.12;78.17;152677.63;5043451;28;20486;-83
2023/02/25 09:39:45;;;;;;;4.23;1.70;;;;;;;5.13;77.05;152680.22;5054790;28;20867;-83
2023/02/25 09:42:16;;;;;;;3.13;1.77;;;;;;;5.06;78.75;152662.16;5039805;28;20447;-83
2023/02/25 09:44:47;;;;;;;3.30;1.63;;;;;;;5.13;79.98;152680.22;5047355;28;20455;-77
2023/02/25 09:47:19;;;;;;;3.67;1.83;;;;;;;5.15;73.13;152684.06;5044261;28;20833;-83
2023/02/25 09:49:51;;;;;;;2.63;1.50;;;;;;;5.30;79.29;152724.03;5044236;28;20466;-77
2023/02/25 09:52:23;;;;;;;2.40;1.30;;;;;;;5.44;73.86;152758.84;5058144;28;20455;-83
2023/02/25 09:54:54;;;;;;;2.70;0.90;;;;;;;5.58;74.92;152794.97;5060905;28;20459;-83
2023/02/25 09:57:22;;;;;;;2.50;1.03;;;;;;;5.72;74.34;152829.78;5049409;28;20439;-83
2023/02/25 09:59:50;;;;;;;1.93;1.10;;;;;;;5.82;75.03;152855.56;5059165;28;20532;-83
2023/02/25 10:02:26;;;;;;;1.10;0.70;;;;;;;5.91;75.35;152880.09;5064542;28;20447;-83
2023/02/25 10:05:07;;;;;;;1.67;0.50;;;;;;;5.81;66.89;152852.97;5060108;28;20478;-83
2023/02/25 10:07:36;;;;;;;1.07;0.70;;;;;;;5.78;69.21;152846.53;5045921;28;20444;-83
2023/02/25 10:10:07;;;;;;;0.80;0.40;;;;;;;5.62;64.70;152805.25;5048588;28;20454;-83
2023/02/25 10:12:38;;;;;;;1.03;0.50;;;;;;;5.69;71.64;152822.03;5060646;28;20451;-83
2023/02/25 10:15:24;;;;;;;1.07;0.53;;;;;;;5.56;68.64;152788.50;5048017;28;20457;-83
2023/02/25 10:18:04;;;;;;;1.43;0.50;;;;;;;5.56;66.56;152789.75;5046945;28;20460;-83
2023/02/25 10:20:49;;;;;;;4.10;0.67;;;;;;;5.46;62.21;152765.28;5049308;28;20546;-83
2023/02/25 10:23:24;;;;;;;0.80;0.50;;;;;;;5.43;66.13;152756.25;5045412;28;20542;-83
2023/02/25 10:25:59;;;;;;;2.03;0.70;;;;;;;5.34;66.82;152733.06;5049460;28;21024;-83
2023/02/25 10:28:26;;;;;;;0.90;0.53;;;;;;;5.40;67.29;152748.56;5045576;28;20447;-83
2023/02/25 10:30:58;;;;;;;2.90;1.03;;;;;;;5.51;73.88;152776.88;5058830;28;20475;-83
2023/02/25 10:33:27;;;;;;;1.13;0.60;;;;;;;5.43;70.07;152756.25;5057212;28;20483;-84
2023/02/25 10:36:00;;;;;;;2.13;0.63;;;;;;;5.54;70.13;152784.63;5046566;28;20456;-83
2023/02/25 10:38:29;;;;;;;4.40;0.50;;;;;;;5.53;65.11;152783.31;5042049;28;20448;-83
2023/02/25 10:40:57;;;;;;;1.30;0.90;;;;;;;5.57;64.06;152792.38;5062474;28;20497;-83
2023/02/25 10:43:34;;;;;;;1.40;0.80;;;;;;;5.54;66.18;152784.63;5062961;28;20545;-83
2023/02/25 10:46:04;;;;;;;1.10;0.83;;;;;;;5.64;64.07;152809.16;5020693;28;20447;-83
2023/02/25 10:48:34;;;;;;;1.40;0.40;;;;;;;5.59;63.28;152797.50;5063058;28;20806;-85
2023/02/25 10:51:08;;;;;;;1.20;0.57;;;;;;;5.43;68.64;152756.25;5062796;28;20513;-83
2023/02/25 10:53:35;;;;;;;1.67;0.70;;;;;;;5.29;65.78;152720.19;5049968;28;20482;-83
2023/02/25 10:56:03;;;;;;;1.20;0.87;;;;;;;5.42;66.07;152753.69;5060223;28;20480;-83
2023/02/25 10:58:39;;;;;;;1.43;0.80;;;;;;;5.40;63.78;152748.56;5060136;28;20443;-82
2023/02/25 11:01:12;;;;;;;0.83;0.50;;;;;;;5.42;69.48;152755.00;5071323;28;20451;-83
2023/02/25 11:03:45;;;;;;;1.10;0.60;;;;;;;5.44;69.39;152758.84;5065638;28;20455;-83
2023/02/25 11:06:26;;;;;;;1.07;0.80;;;;;;;5.28;66.83;152718.88;5060899;28;20960;-83
2023/02/25 11:08:57;;;;;;;1.53;0.50;;;;;;;5.33;70.50;152731.78;5048223;28;20439;-82
2023/02/25 11:11:27;;;;;;;2.47;1.10;;;;;;;5.39;74.61;152747.25;5061666;28;20459;-82
2023/02/25 11:13:59;;;;;;;2.13;0.80;;;;;;;5.44;73.41;152760.13;5047114;28;20447;-83
2023/02/25 11:16:27;;;;;;;1.87;0.90;;;;;;;5.52;72.69;152779.47;5031723;28;20539;-82
2023/02/25 11:18:56;;;;;;;5.70;1.00;;;;;;;5.52;67.53;152779.47;5061950;28;20814;-83
2023/02/25 11:21:34;;;;;;;1.77;0.90;;;;;;;5.54;69.25;152784.63;5059777;28;20453;-83
2023/02/25 11:24:04;;;;;;;1.33;0.63;;;;;;;5.64;69.19;152810.41;5059540;28;20801;-83
2023/02/25 11:26:33;;;;;;;1.63;0.90;;;;;;;5.70;70.36;152825.88;5045702;28;20570;-83
2023/02/25 11:29:01;;;;;;;1.50;0.83;;;;;;;5.74;69.66;152836.22;5057768;28;20448;-83
2023/02/25 11:31:31;;;;;;;1.63;0.87;;;;;;;5.79;67.61;152847.81;5055723;28;20463;-83
2023/02/25 11:34:00;;;;;;;1.43;0.63;;;;;;;5.94;73.67;152887.84;5052387;28;20432;-83
2023/02/25 11:36:32;;;;;;;1.90;0.83;;;;;;;5.93;68.26;152885.25;5049228;28;20450;-83
2023/02/25 11:39:16;;;;;;;1.60;0.63;;;;;;;5.82;65.73;152855.56;5058613;28;20440;-83
2023/02/25 11:41:44;;;;;;;2.97;1.00;;;;;;;5.75;64.85;152838.78;5043563;28;20493;-83